createdAt,value
2018-08-17T00:00:22.012Z,82.21
2018-08-17T00:01:21.991Z,82.70
2018-08-17T00:02:21.968Z,82.17
2018-08-17T00:03:21.963Z,82.17
2018-08-17T00:04:21.921Z,82.37
2018-08-17T00:05:21.951Z,82.27
2018-08-17T00:06:21.885Z,81.98
2018-08-17T00:07:21.845Z,81.88
2018-08-17T00:08:21.820Z,81.50
2018-08-17T00:09:21.796Z,81.88
2018-08-17T00:10:21.772Z,82.08
2018-08-17T00:11:21.746Z,81.79
2018-08-17T00:12:21.725Z,82.56
2018-08-17T00:13:21.706Z,81.02
2018-08-17T00:14:21.672Z,81.70
2018-08-17T00:15:21.645Z,81.30
2018-08-17T00:16:21.631Z,81.60
2018-08-17T00:17:21.607Z,81.30
2018-08-17T00:18:21.588Z,81.50
2018-08-17T00:19:21.555Z,81.40
2018-08-17T00:20:21.535Z,81.30
2018-08-17T00:21:21.511Z,81.21
2018-08-17T00:22:21.486Z,81.12
2018-08-17T00:23:21.461Z,81.50
2018-08-17T00:24:21.429Z,81.02
2018-08-17T00:25:21.407Z,81.21
2018-08-17T00:26:21.385Z,81.30
2018-08-17T00:27:21.359Z,80.96
2018-08-17T00:28:21.398Z,81.35
2018-08-17T00:29:21.312Z,80.58
2018-08-17T00:30:21.285Z,81.25
2018-08-17T00:31:21.266Z,80.87
2018-08-17T00:32:21.231Z,81.35
2018-08-17T00:33:21.218Z,81.16
2018-08-17T00:34:21.184Z,81.73
2018-08-17T00:35:21.161Z,81.25
2018-08-17T00:36:21.142Z,81.54
2018-08-17T00:37:21.117Z,81.16
2018-08-17T00:38:21.090Z,81.35
2018-08-17T00:39:21.066Z,81.35
2018-08-17T00:40:21.049Z,80.58
2018-08-17T00:41:21.011Z,81.35
2018-08-17T00:42:20.996Z,81.77
2018-08-17T00:43:21.005Z,82.02
2018-08-17T00:44:20.938Z,82.06
2018-08-17T00:45:20.916Z,82.74
2018-08-17T00:46:20.916Z,82.74
2018-08-17T00:47:20.871Z,83.51
2018-08-17T00:48:20.847Z,82.45
2018-08-17T00:49:20.817Z,83.51
2018-08-17T00:50:20.800Z,83.41
2018-08-17T00:51:20.767Z,83.31
2018-08-17T00:52:20.759Z,83.41
2018-08-17T00:53:20.724Z,83.31
2018-08-17T00:54:20.697Z,83.03
2018-08-17T00:55:20.671Z,83.22
2018-08-17T00:56:20.653Z,83.03
2018-08-17T00:57:20.629Z,82.83
2018-08-17T00:58:20.607Z,81.87
2018-08-17T00:59:20.572Z,82.45
2018-08-17T01:00:20.556Z,82.35
2018-08-17T01:01:20.528Z,82.93
2018-08-17T01:02:20.504Z,83.03
2018-08-17T01:03:20.476Z,84.09
2018-08-17T01:04:20.456Z,84.09
2018-08-17T01:05:20.438Z,83.61
2018-08-17T01:06:20.404Z,83.70
2018-08-17T01:07:20.385Z,83.80
2018-08-17T01:08:20.380Z,82.54
2018-08-17T01:09:20.334Z,83.31
2018-08-17T01:10:20.309Z,84.09
2018-08-17T01:11:20.285Z,84.56
2018-08-17T01:12:20.264Z,84.18
2018-08-17T01:13:20.235Z,83.51
2018-08-17T01:14:20.221Z,84.09
2018-08-17T01:15:20.186Z,84.28
2018-08-17T01:16:20.159Z,83.89
2018-08-17T01:17:20.143Z,84.95
2018-08-17T01:18:20.117Z,84.66
2018-08-17T01:19:20.086Z,84.47
2018-08-17T01:20:20.064Z,85.05
2018-08-17T01:21:20.042Z,84.76
2018-08-17T01:22:20.012Z,83.89
2018-08-17T01:23:19.997Z,83.99
2018-08-17T01:24:19.963Z,85.24
2018-08-17T01:25:19.940Z,85.24
2018-08-17T01:26:19.942Z,83.70
2018-08-17T01:27:19.893Z,84.56
2018-08-17T01:28:19.873Z,84.76
2018-08-17T01:29:19.839Z,84.86
2018-08-17T01:30:19.819Z,85.24
2018-08-17T01:31:19.799Z,84.47
2018-08-17T01:32:19.764Z,84.86
2018-08-17T01:33:19.743Z,84.76
2018-08-17T01:34:19.724Z,84.28
2018-08-17T01:35:19.698Z,84.56
2018-08-17T01:36:19.681Z,83.80
2018-08-17T01:37:19.653Z,84.09
2018-08-17T01:38:19.622Z,84.28
2018-08-17T01:39:19.601Z,84.47
2018-08-17T01:40:19.573Z,85.05
2018-08-17T01:41:19.546Z,84.86
2018-08-17T01:42:19.531Z,85.14
2018-08-17T01:43:19.499Z,85.05
2018-08-17T01:44:19.481Z,84.95
2018-08-17T01:45:19.451Z,84.95
2018-08-17T01:46:19.426Z,85.34
2018-08-17T01:47:19.411Z,84.86
2018-08-17T01:48:19.382Z,84.47
2018-08-17T01:49:19.353Z,85.34
2018-08-17T01:50:19.333Z,84.86
2018-08-17T01:51:19.310Z,85.34
2018-08-17T01:52:19.304Z,84.66
2018-08-17T01:53:19.342Z,84.56
2018-08-17T01:54:19.311Z,84.86
2018-08-17T01:55:19.228Z,84.47
2018-08-17T01:56:19.301Z,84.76
2018-08-17T01:57:19.179Z,85.24
2018-08-17T01:58:19.201Z,84.66
2018-08-17T01:59:19.156Z,85.43
2018-08-17T02:00:19.184Z,85.05
2018-08-17T02:01:19.060Z,84.66
2018-08-17T02:02:19.037Z,84.86
2018-08-17T02:03:19.007Z,84.56
2018-08-17T02:04:18.987Z,84.95
2018-08-17T02:05:18.974Z,84.56
2018-08-17T02:06:18.938Z,83.70
2018-08-17T02:07:18.912Z,84.43
2018-08-17T02:08:18.896Z,83.95
2018-08-17T02:09:18.871Z,83.56
2018-08-17T02:10:18.841Z,84.43
2018-08-17T02:11:18.818Z,83.75
2018-08-17T02:12:18.787Z,83.66
2018-08-17T02:13:18.771Z,83.95
2018-08-17T02:14:18.741Z,84.05
2018-08-17T02:15:18.713Z,84.23
2018-08-17T02:16:18.700Z,84.33
2018-08-17T02:17:18.663Z,84.81
2018-08-17T02:18:18.649Z,84.43
2018-08-17T02:19:18.615Z,84.23
2018-08-17T02:20:18.600Z,84.43
2018-08-17T02:21:18.565Z,84.53
2018-08-17T02:22:18.544Z,84.43
2018-08-17T02:23:18.513Z,84.14
2018-08-17T02:24:18.525Z,84.23
2018-08-17T02:25:18.465Z,83.75
2018-08-17T02:26:18.449Z,83.75
2018-08-17T02:27:18.424Z,82.98
2018-08-17T02:28:18.401Z,83.14
2018-08-17T02:29:18.369Z,83.42
2018-08-17T02:30:18.342Z,83.33
2018-08-17T02:31:18.322Z,83.14
2018-08-17T02:32:18.288Z,83.14
2018-08-17T02:33:18.276Z,83.33
2018-08-17T02:34:18.253Z,83.23
2018-08-17T02:35:18.216Z,82.94
2018-08-17T02:36:18.215Z,82.37
2018-08-17T02:37:18.163Z,82.75
2018-08-17T02:38:18.146Z,83.23
2018-08-17T02:39:18.116Z,83.14
2018-08-17T02:40:18.088Z,83.14
2018-08-17T02:41:18.067Z,82.56
2018-08-17T02:42:18.045Z,82.17
2018-08-17T02:43:18.021Z,81.79
2018-08-17T02:44:17.988Z,80.35
2018-08-17T02:45:17.974Z,80.50
2018-08-17T02:46:17.942Z,79.58
2018-08-17T02:47:17.919Z,80.79
2018-08-17T02:48:17.890Z,79.58
2018-08-17T02:49:17.875Z,79.48
2018-08-17T02:50:17.842Z,79.73
2018-08-17T02:51:17.822Z,79.96
2018-08-17T02:52:17.793Z,79.48
2018-08-17T02:53:17.765Z,79.53
2018-08-17T02:54:17.739Z,78.28
2018-08-17T02:55:17.712Z,79.44
2018-08-17T02:56:17.687Z,79.19
2018-08-17T02:57:17.667Z,78.71
2018-08-17T02:58:17.639Z,78.48
2018-08-17T02:59:17.618Z,78.19
2018-08-17T03:00:17.589Z,78.48
2018-08-17T03:01:17.565Z,78.19
2018-08-17T03:02:17.553Z,77.33
2018-08-17T03:03:17.513Z,77.90
2018-08-17T03:04:17.490Z,77.81
2018-08-17T03:05:17.488Z,78.19
2018-08-17T03:06:17.436Z,78.09
2018-08-17T03:07:17.408Z,77.51
2018-08-17T03:08:17.394Z,77.81
2018-08-17T03:09:17.365Z,77.61
2018-08-17T03:10:17.341Z,77.42
2018-08-17T03:11:17.310Z,77.71
2018-08-17T03:12:17.293Z,77.81
2018-08-17T03:13:17.266Z,77.90
2018-08-17T03:14:17.234Z,78.48
2018-08-17T03:15:17.211Z,78.19
2018-08-17T03:16:17.191Z,77.71
2018-08-17T03:17:17.168Z,78.09
2018-08-17T03:18:17.134Z,78.38
2018-08-17T03:19:17.114Z,78.38
2018-08-17T03:20:17.100Z,78.77
2018-08-17T03:21:17.060Z,78.86
2018-08-17T03:22:17.041Z,78.86
2018-08-17T03:23:17.008Z,78.77
2018-08-17T03:24:16.987Z,78.58
2018-08-17T03:25:16.959Z,78.48
2018-08-17T03:26:16.929Z,78.77
2018-08-17T03:27:16.903Z,78.58
2018-08-17T03:28:16.886Z,78.38
2018-08-17T03:29:16.852Z,78.58
2018-08-17T03:30:16.843Z,78.48
2018-08-17T03:31:16.803Z,78.67
2018-08-17T03:32:16.790Z,78.77
2018-08-17T03:33:16.752Z,78.58
2018-08-17T03:34:16.736Z,78.86
2018-08-17T03:35:16.705Z,78.58
2018-08-17T03:36:16.682Z,78.38
2018-08-17T03:37:16.695Z,78.19
2018-08-17T03:38:16.698Z,78.58
2018-08-17T03:39:16.602Z,78.96
2018-08-17T03:40:16.599Z,78.48
2018-08-17T03:41:16.566Z,78.96
2018-08-17T03:42:16.528Z,79.05
2018-08-17T03:43:16.512Z,78.77
2018-08-17T03:44:16.475Z,79.15
2018-08-17T03:45:16.455Z,78.58
2018-08-17T03:46:16.429Z,78.67
2018-08-17T03:47:16.406Z,78.28
2018-08-17T03:48:16.373Z,78.38
2018-08-17T03:49:16.364Z,78.67
2018-08-17T03:50:16.324Z,78.67
2018-08-17T03:51:16.302Z,78.38
2018-08-17T03:52:16.275Z,78.28
2018-08-17T03:53:16.256Z,78.19
2018-08-17T03:54:16.223Z,78.48
2018-08-17T03:55:16.217Z,77.61
2018-08-17T03:56:16.168Z,77.81
2018-08-17T03:57:16.147Z,77.23
2018-08-17T03:58:16.124Z,77.23
2018-08-17T03:59:16.092Z,76.17
2018-08-17T04:00:16.077Z,75.98
2018-08-17T04:01:16.046Z,76.17
2018-08-17T04:02:16.041Z,76.65
2018-08-17T04:03:15.997Z,76.56
2018-08-17T04:04:15.970Z,76.75
2018-08-17T04:05:15.942Z,76.56
2018-08-17T04:06:15.925Z,76.07
2018-08-17T04:07:15.897Z,76.07
2018-08-17T04:08:15.874Z,76.65
2018-08-17T04:09:15.852Z,76.65
2018-08-17T04:10:15.817Z,76.36
2018-08-17T04:11:15.794Z,75.69
2018-08-17T04:12:15.767Z,76.07
2018-08-17T04:13:15.739Z,75.94
2018-08-17T04:14:15.722Z,74.30
2018-08-17T04:15:15.693Z,75.49
2018-08-17T04:16:15.670Z,75.65
2018-08-17T04:17:15.640Z,75.98
2018-08-17T04:18:15.621Z,75.46
2018-08-17T04:19:15.608Z,75.46
2018-08-17T04:20:15.561Z,75.79
2018-08-17T04:21:15.542Z,75.11
2018-08-17T04:22:15.520Z,74.98
2018-08-17T04:23:15.501Z,75.02
2018-08-17T04:24:15.470Z,75.59
2018-08-17T04:25:15.442Z,75.79
2018-08-17T04:26:15.417Z,75.98
2018-08-17T04:27:15.393Z,75.98
2018-08-17T04:28:15.365Z,76.23
2018-08-17T04:29:15.345Z,75.75
2018-08-17T04:30:15.311Z,75.49
2018-08-17T04:31:15.293Z,75.88
2018-08-17T04:32:15.261Z,76.75
2018-08-17T04:33:15.240Z,76.65
2018-08-17T04:34:15.210Z,76.65
2018-08-17T04:35:15.205Z,76.56
2018-08-17T04:36:15.160Z,76.84
2018-08-17T04:37:15.138Z,76.65
2018-08-17T04:38:15.113Z,76.65
2018-08-17T04:39:15.093Z,77.13
2018-08-17T04:40:15.057Z,76.94
2018-08-17T04:41:15.040Z,76.75
2018-08-17T04:42:15.006Z,77.23
2018-08-17T04:43:14.983Z,77.23
2018-08-17T04:44:14.964Z,77.13
2018-08-17T04:45:14.931Z,77.23
2018-08-17T04:46:14.917Z,77.23
2018-08-17T04:47:14.887Z,77.71
2018-08-17T04:48:14.860Z,77.33
2018-08-17T04:49:14.845Z,77.81
2018-08-17T04:50:14.809Z,77.61
2018-08-17T04:51:14.781Z,76.84
2018-08-17T04:52:14.760Z,77.51
2018-08-17T04:53:14.731Z,77.61
2018-08-17T04:54:14.709Z,77.90
2018-08-17T04:55:14.678Z,77.61
2018-08-17T04:56:14.664Z,78.09
2018-08-17T04:57:14.630Z,78.48
2018-08-17T04:58:14.611Z,78.38
2018-08-17T04:59:14.586Z,78.19
2018-08-17T05:00:14.572Z,78.19
2018-08-17T05:01:14.528Z,79.05
2018-08-17T05:02:14.511Z,78.81
2018-08-17T05:03:14.504Z,79.77
2018-08-17T05:04:14.458Z,79.48
2018-08-17T05:05:14.426Z,79.86
2018-08-17T05:06:14.411Z,79.77
2018-08-17T05:07:14.379Z,79.35
2018-08-17T05:08:14.358Z,80.25
2018-08-17T05:09:14.332Z,80.63
2018-08-17T05:10:14.303Z,80.25
2018-08-17T05:11:14.282Z,80.54
2018-08-17T05:12:14.250Z,80.35
2018-08-17T05:13:14.228Z,80.63
2018-08-17T05:14:14.209Z,81.40
2018-08-17T05:15:14.211Z,81.40
2018-08-17T05:16:14.151Z,81.70
2018-08-17T05:17:14.125Z,80.92
2018-08-17T05:18:14.107Z,80.83
2018-08-17T05:19:14.078Z,79.58
2018-08-17T05:20:14.055Z,80.06
2018-08-17T05:21:14.026Z,79.44
2018-08-17T05:22:14.005Z,79.73
2018-08-17T05:23:14.035Z,79.63
2018-08-17T05:24:13.948Z,79.44
2018-08-17T05:25:13.930Z,80.02
2018-08-17T05:26:13.904Z,80.21
2018-08-17T05:27:13.873Z,79.53
2018-08-17T05:28:13.856Z,79.53
2018-08-17T05:29:13.829Z,79.73
2018-08-17T05:30:13.799Z,80.69
2018-08-17T05:31:13.790Z,80.79
2018-08-17T05:32:13.748Z,81.37
2018-08-17T05:33:13.730Z,80.88
2018-08-17T05:34:13.710Z,81.56
2018-08-17T05:35:13.678Z,81.37
2018-08-17T05:36:13.648Z,79.82
2018-08-17T05:37:13.628Z,77.90
2018-08-17T05:38:13.599Z,76.84
2018-08-17T05:39:13.569Z,74.54
2018-08-17T05:40:13.555Z,74.05
2018-08-17T05:41:13.560Z,74.05
2018-08-17T05:42:13.508Z,72.23
2018-08-17T05:43:13.476Z,70.88
2018-08-17T05:44:13.450Z,70.98
2018-08-17T05:45:13.468Z,69.44
2018-08-17T05:46:13.401Z,69.44
2018-08-17T05:47:13.368Z,69.63
2018-08-17T05:48:13.362Z,70.01
2018-08-17T05:49:13.330Z,70.40
2018-08-17T05:50:13.789Z,68.25
2018-08-17T05:51:13.271Z,67.90
2018-08-17T05:52:13.250Z,68.15
2018-08-17T05:53:13.223Z,67.90
2018-08-17T05:54:13.198Z,62.80
2018-08-17T05:55:13.189Z,60.85
2018-08-17T05:56:13.147Z,60.46
2018-08-17T05:57:13.121Z,57.48
2018-08-17T05:58:13.101Z,55.66
2018-08-17T05:59:13.072Z,57.20
2018-08-17T06:00:13.047Z,61.23
2018-08-17T06:01:13.016Z,62.29
2018-08-17T06:02:13.001Z,60.66
2018-08-17T06:03:12.965Z,53.74
2018-08-17T06:04:12.948Z,43.54
2018-08-17T06:05:12.920Z,33.84
2018-08-17T06:06:12.893Z,31.15
2018-08-17T06:07:12.867Z,25.46
2018-08-17T06:08:12.842Z,22.58
2018-08-17T06:09:12.827Z,17.58
2018-08-17T06:10:12.796Z,12.77
2018-08-17T06:11:12.904Z,9.22
2018-08-17T06:12:12.747Z,8.83
2018-08-17T06:13:12.716Z,6.82
2018-08-17T06:14:12.694Z,5.47
2018-08-17T06:15:12.661Z,4.70
2018-08-17T06:16:12.653Z,3.17
2018-08-17T06:17:12.612Z,2.11
2018-08-17T06:18:12.598Z,0.67
2018-08-17T06:19:12.619Z,0.96
2018-08-17T06:20:12.534Z,1.63
2018-08-17T06:21:12.515Z,0.57
2018-08-17T06:22:12.486Z,0.00
2018-08-17T06:23:12.467Z,0.00
2018-08-17T06:24:12.436Z,0.00
2018-08-17T06:25:12.410Z,0.00
2018-08-17T06:26:12.393Z,0.00
2018-08-17T06:27:12.362Z,0.00
2018-08-17T06:28:12.334Z,0.00
2018-08-17T06:29:12.313Z,0.00
2018-08-17T06:30:12.283Z,0.00
2018-08-17T06:31:12.265Z,0.00
2018-08-17T06:32:12.231Z,0.00
2018-08-17T06:33:12.212Z,0.00
2018-08-17T06:34:12.181Z,0.00
2018-08-17T06:35:12.168Z,0.00
2018-08-17T06:36:12.141Z,0.00
2018-08-17T06:37:12.170Z,0.00
2018-08-17T06:38:12.081Z,0.00
2018-08-17T06:39:12.055Z,0.00
2018-08-17T06:40:12.031Z,0.00
2018-08-17T06:41:12.008Z,0.00
2018-08-17T06:42:11.976Z,0.00
2018-08-17T06:43:11.957Z,0.00
2018-08-17T06:44:11.929Z,0.00
2018-08-17T06:45:11.913Z,0.00
2018-08-17T06:46:11.880Z,0.00
2018-08-17T06:47:11.848Z,0.00
2018-08-17T06:48:11.831Z,0.00
2018-08-17T06:49:11.805Z,0.00
2018-08-17T06:50:11.774Z,0.00
2018-08-17T06:51:11.846Z,0.00
2018-08-17T06:52:11.726Z,0.00
2018-08-17T06:53:11.699Z,0.00
2018-08-17T06:54:11.670Z,0.00
2018-08-17T06:55:11.648Z,0.00
2018-08-17T06:56:11.627Z,0.00
2018-08-17T06:57:11.661Z,0.00
2018-08-17T06:58:11.571Z,0.00
2018-08-17T06:59:11.542Z,0.00
2018-08-17T07:00:11.543Z,0.00
2018-08-17T07:01:11.496Z,0.00
2018-08-17T07:02:11.468Z,0.00
2018-08-17T07:03:11.448Z,0.00
2018-08-17T07:04:11.416Z,0.00
2018-08-17T07:05:11.418Z,0.00
2018-08-17T07:06:11.370Z,0.00
2018-08-17T07:07:11.337Z,0.00
2018-08-17T07:08:11.315Z,0.00
2018-08-17T07:09:11.337Z,0.00
2018-08-17T07:10:11.268Z,0.00
2018-08-17T07:11:11.247Z,0.00
2018-08-17T07:12:11.217Z,0.00
2018-08-17T07:13:11.188Z,0.00
2018-08-17T07:14:11.166Z,0.00
2018-08-17T07:15:11.147Z,0.00
2018-08-17T07:16:11.114Z,0.00
2018-08-17T07:17:11.099Z,0.00
2018-08-17T07:18:11.057Z,0.00
2018-08-17T07:19:11.038Z,0.00
2018-08-17T07:20:11.012Z,0.00
2018-08-17T07:21:10.989Z,0.00
2018-08-17T07:22:10.960Z,0.00
2018-08-17T07:23:10.934Z,0.00
2018-08-17T07:24:10.908Z,0.00
2018-08-17T07:25:10.892Z,0.00
2018-08-17T07:26:10.858Z,0.00
2018-08-17T07:27:10.835Z,0.00
2018-08-17T07:28:10.860Z,0.00
2018-08-17T07:29:10.780Z,0.00
2018-08-17T07:30:10.763Z,0.00
2018-08-17T07:31:10.746Z,0.00
2018-08-17T07:32:10.707Z,0.00
2018-08-17T07:33:10.683Z,0.00
2018-08-17T07:34:10.656Z,0.00
2018-08-17T07:35:10.634Z,0.00
2018-08-17T07:36:10.601Z,0.00
2018-08-17T07:37:10.593Z,0.00
2018-08-17T07:38:10.550Z,0.00
2018-08-17T07:39:10.530Z,0.00
2018-08-17T07:40:10.505Z,0.00
2018-08-17T07:41:10.483Z,0.00
2018-08-17T07:42:10.455Z,0.00
2018-08-17T07:43:10.428Z,0.00
2018-08-17T07:44:10.404Z,0.00
2018-08-17T07:45:10.385Z,0.00
2018-08-17T07:46:10.355Z,0.00
2018-08-17T07:47:10.376Z,0.00
2018-08-17T07:48:10.411Z,0.00
2018-08-17T07:49:10.286Z,0.00
2018-08-17T07:50:10.278Z,0.00
2018-08-17T07:51:10.227Z,0.00
2018-08-17T07:52:10.201Z,0.00
2018-08-17T07:53:10.181Z,0.00
2018-08-17T07:54:10.154Z,0.00
2018-08-17T07:55:10.124Z,0.00
2018-08-17T07:56:10.101Z,0.00
2018-08-17T07:57:10.073Z,0.00
2018-08-17T07:58:10.054Z,0.00
2018-08-17T07:59:10.113Z,0.00
2018-08-17T08:00:10.004Z,0.00
2018-08-17T08:01:09.975Z,0.00
2018-08-17T08:02:09.974Z,0.00
2018-08-17T08:03:09.928Z,0.00
2018-08-17T08:04:09.909Z,0.00
2018-08-17T08:05:09.874Z,0.00
2018-08-17T08:06:09.847Z,0.00
2018-08-17T08:07:09.820Z,0.00
2018-08-17T08:08:09.799Z,0.00
2018-08-17T08:09:09.770Z,0.00
2018-08-17T08:10:09.747Z,0.00
2018-08-17T08:11:09.792Z,0.00
2018-08-17T08:12:09.701Z,0.00
2018-08-17T08:13:09.675Z,0.00
2018-08-17T08:14:09.644Z,0.00
2018-08-17T08:15:09.627Z,0.00
2018-08-17T08:16:09.595Z,0.00
2018-08-17T08:17:09.577Z,0.00
2018-08-17T08:18:09.547Z,0.00
2018-08-17T08:19:09.518Z,0.00
2018-08-17T08:20:09.502Z,0.00
2018-08-17T08:21:09.476Z,0.00
2018-08-17T08:22:09.448Z,0.00
2018-08-17T08:23:09.421Z,0.00
2018-08-17T08:24:09.400Z,0.00
2018-08-17T08:25:09.366Z,0.00
2018-08-17T08:26:09.405Z,0.00
2018-08-17T08:27:09.322Z,0.00
2018-08-17T08:28:09.296Z,0.00
2018-08-17T08:29:09.281Z,0.00
2018-08-17T08:30:09.249Z,0.00
2018-08-17T08:31:09.217Z,0.00
2018-08-17T08:32:09.205Z,0.00
2018-08-17T08:33:09.170Z,0.00
2018-08-17T08:34:09.158Z,0.00
2018-08-17T08:35:09.126Z,0.00
2018-08-17T08:36:09.101Z,0.00
2018-08-17T08:37:09.067Z,0.00
2018-08-17T08:38:09.054Z,0.00
2018-08-17T08:39:09.027Z,0.00
2018-08-17T08:40:08.996Z,0.00
2018-08-17T08:41:08.972Z,0.00
2018-08-17T08:42:08.949Z,0.00
2018-08-17T08:43:08.954Z,0.00
2018-08-17T08:44:08.898Z,0.00
2018-08-17T08:45:08.871Z,0.00
2018-08-17T08:46:08.854Z,0.00
2018-08-17T08:47:08.828Z,0.00
2018-08-17T08:48:08.800Z,0.00
2018-08-17T08:49:08.773Z,0.00
2018-08-17T08:50:08.751Z,0.00
2018-08-17T08:51:08.721Z,0.00
2018-08-17T08:52:08.700Z,0.00
2018-08-17T08:53:08.678Z,0.00
2018-08-17T08:54:08.663Z,0.00
2018-08-17T08:55:08.626Z,0.00
2018-08-17T08:56:08.768Z,0.00
2018-08-17T08:57:08.572Z,0.00
2018-08-17T08:58:08.556Z,0.00
2018-08-17T08:59:08.529Z,0.00
2018-08-17T09:00:08.508Z,0.00
2018-08-17T09:01:08.478Z,0.00
2018-08-17T09:02:08.452Z,0.00
2018-08-17T09:03:08.428Z,0.00
2018-08-17T09:04:08.405Z,0.00
2018-08-17T09:05:08.374Z,0.00
2018-08-17T09:06:08.358Z,0.00
2018-08-17T09:07:08.327Z,0.00
2018-08-17T09:08:08.313Z,0.00
2018-08-17T09:09:08.271Z,0.00
2018-08-17T09:10:08.256Z,0.00
2018-08-17T09:11:08.225Z,0.00
2018-08-17T09:12:08.234Z,0.00
2018-08-17T09:13:08.179Z,0.00
2018-08-17T09:14:08.146Z,0.00
2018-08-17T09:15:08.127Z,0.00
2018-08-17T09:16:08.102Z,0.00
2018-08-17T09:17:08.075Z,0.00
2018-08-17T09:18:08.048Z,0.00
2018-08-17T09:19:08.028Z,0.00
2018-08-17T09:20:08.048Z,0.00
2018-08-17T09:21:07.978Z,0.00
2018-08-17T09:22:07.948Z,0.00
2018-08-17T09:23:07.929Z,0.00
2018-08-17T09:24:07.900Z,0.00
2018-08-17T09:25:07.896Z,0.00
2018-08-17T09:26:07.849Z,0.00
2018-08-17T09:27:07.824Z,0.00
2018-08-17T09:28:07.796Z,0.00
2018-08-17T09:29:07.828Z,0.00
2018-08-17T09:30:07.854Z,0.00
2018-08-17T09:31:07.721Z,0.00
2018-08-17T09:32:07.701Z,0.00
2018-08-17T09:33:07.672Z,0.00
2018-08-17T09:34:07.652Z,0.00
2018-08-17T09:35:07.618Z,0.00
2018-08-17T09:36:07.674Z,0.00
2018-08-17T09:37:07.568Z,0.00
2018-08-17T09:38:07.554Z,0.00
2018-08-17T09:39:07.518Z,0.00
2018-08-17T09:40:07.503Z,0.00
2018-08-17T09:41:07.468Z,0.00
2018-08-17T09:42:07.545Z,0.00
2018-08-17T09:43:07.424Z,0.00
2018-08-17T09:44:07.400Z,0.00
2018-08-17T09:45:07.373Z,0.00
2018-08-17T09:46:07.350Z,0.00
2018-08-17T09:47:07.322Z,0.00
2018-08-17T09:48:07.295Z,0.00
2018-08-17T09:49:07.273Z,0.00
2018-08-17T09:50:07.252Z,0.00
2018-08-17T09:51:07.227Z,0.00
2018-08-17T09:52:07.199Z,0.00
2018-08-17T09:53:07.175Z,0.00
2018-08-17T09:54:07.158Z,0.00
2018-08-17T09:55:07.128Z,0.00
2018-08-17T09:56:07.093Z,0.00
2018-08-17T09:57:07.117Z,0.00
2018-08-17T09:58:07.050Z,0.00
2018-08-17T09:59:07.020Z,0.00
2018-08-17T10:00:07.001Z,0.00
2018-08-17T10:01:06.976Z,0.00
2018-08-17T10:02:06.947Z,0.00
2018-08-17T10:03:06.926Z,0.00
2018-08-17T10:04:06.970Z,0.00
2018-08-17T10:05:06.873Z,0.00
2018-08-17T10:06:06.852Z,0.00
2018-08-17T10:07:06.826Z,0.00
2018-08-17T10:08:06.805Z,0.00
2018-08-17T10:09:06.770Z,0.00
2018-08-17T10:10:06.755Z,0.00
2018-08-17T10:11:06.726Z,0.00
2018-08-17T10:12:06.699Z,0.00
2018-08-17T10:13:06.672Z,0.00
2018-08-17T10:14:06.659Z,0.00
2018-08-17T10:15:06.631Z,0.00
2018-08-17T10:16:06.603Z,0.00
2018-08-17T10:17:06.581Z,0.00
2018-08-17T10:18:06.549Z,0.00
2018-08-17T10:19:06.533Z,0.00
2018-08-17T10:20:06.503Z,0.00
2018-08-17T10:21:06.602Z,0.00
2018-08-17T10:22:06.879Z,0.00
2018-08-17T10:23:06.445Z,0.00
2018-08-17T10:24:06.399Z,0.00
2018-08-17T10:25:06.374Z,0.00
2018-08-17T10:26:06.356Z,0.00
2018-08-17T10:27:06.326Z,0.00
2018-08-17T10:28:06.303Z,0.00
2018-08-17T10:29:06.284Z,0.00
2018-08-17T10:30:06.248Z,0.00
2018-08-17T10:31:06.223Z,0.00
2018-08-17T10:32:06.200Z,0.00
2018-08-17T10:33:06.171Z,0.00
2018-08-17T10:34:06.245Z,0.00
2018-08-17T10:35:06.125Z,0.00
2018-08-17T10:36:06.099Z,0.00
2018-08-17T10:37:06.070Z,0.00
2018-08-17T10:38:06.056Z,0.00
2018-08-17T10:39:06.026Z,0.00
2018-08-17T10:40:05.999Z,0.00
2018-08-17T10:41:05.971Z,0.00
2018-08-17T10:42:05.945Z,0.00
2018-08-17T10:43:05.932Z,0.00
2018-08-17T10:44:05.899Z,0.00
2018-08-17T10:45:05.877Z,0.00
2018-08-17T10:46:05.851Z,0.00
2018-08-17T10:47:05.823Z,0.00
2018-08-17T10:48:05.796Z,0.00
2018-08-17T10:49:05.827Z,0.00
2018-08-17T10:50:05.757Z,0.00
2018-08-17T10:51:05.726Z,0.00
2018-08-17T10:52:05.693Z,0.00
2018-08-17T10:53:05.674Z,0.00
2018-08-17T10:54:05.641Z,0.00
2018-08-17T10:55:05.623Z,0.00
2018-08-17T10:56:05.603Z,0.00
2018-08-17T10:57:05.574Z,0.00
2018-08-17T10:58:05.552Z,0.00
2018-08-17T10:59:05.526Z,0.00
2018-08-17T11:00:05.495Z,0.00
2018-08-17T11:01:05.470Z,0.00
2018-08-17T11:02:05.453Z,0.00
2018-08-17T11:03:05.428Z,0.00
2018-08-17T11:04:05.394Z,0.00
2018-08-17T11:05:05.376Z,0.00
2018-08-17T11:06:05.372Z,0.00
2018-08-17T11:07:05.324Z,0.00
2018-08-17T11:08:05.300Z,0.00
2018-08-17T11:09:05.279Z,2.40
2018-08-17T11:10:05.252Z,0.00
2018-08-17T11:11:05.275Z,2.59
2018-08-17T11:12:05.196Z,0.00
2018-08-17T11:13:05.180Z,0.00
2018-08-17T11:14:05.154Z,4.04
2018-08-17T11:15:05.124Z,1.15
2018-08-17T11:16:05.104Z,0.00
2018-08-17T11:17:05.181Z,2.40
2018-08-17T11:18:05.048Z,2.31
2018-08-17T11:19:05.022Z,0.00
2018-08-17T11:20:05.007Z,0.00
2018-08-17T11:21:04.982Z,5.29
2018-08-17T11:22:04.954Z,4.33
2018-08-17T11:23:04.926Z,0.67
2018-08-17T11:24:04.909Z,3.56
2018-08-17T11:25:04.887Z,2.02
2018-08-17T11:26:04.856Z,4.23
2018-08-17T11:27:04.832Z,0.29
2018-08-17T11:28:04.808Z,0.00
2018-08-17T11:29:04.778Z,0.00
2018-08-17T11:30:04.762Z,0.00
2018-08-17T11:31:04.735Z,0.00
2018-08-17T11:32:04.707Z,0.00
2018-08-17T11:33:04.682Z,0.00
2018-08-17T11:34:04.661Z,0.19
2018-08-17T11:35:04.632Z,2.50
2018-08-17T11:36:04.612Z,8.94
2018-08-17T11:37:04.607Z,2.40
2018-08-17T11:38:04.560Z,0.09
2018-08-17T11:39:04.540Z,4.71
2018-08-17T11:40:04.516Z,5.29
2018-08-17T11:41:04.483Z,3.75
2018-08-17T11:42:04.462Z,8.07
2018-08-17T11:43:04.439Z,3.46
2018-08-17T11:44:04.406Z,0.48
2018-08-17T11:45:04.393Z,0.00
2018-08-17T11:46:04.356Z,0.00
2018-08-17T11:47:04.339Z,0.00
2018-08-17T11:48:04.356Z,0.00
2018-08-17T11:49:04.293Z,0.00
2018-08-17T11:50:04.259Z,0.96
2018-08-17T11:51:04.239Z,0.38
2018-08-17T11:52:04.215Z,0.00
2018-08-17T11:53:04.184Z,2.50
2018-08-17T11:54:04.197Z,6.54
2018-08-17T11:55:04.224Z,3.66
2018-08-17T11:56:04.113Z,0.29
2018-08-17T11:57:04.093Z,0.00
2018-08-17T11:58:04.078Z,0.00
2018-08-17T11:59:04.041Z,0.00
2018-08-17T12:00:04.021Z,4.71
2018-08-17T12:01:04.024Z,9.04
2018-08-17T12:02:03.966Z,12.78
2018-08-17T12:03:03.945Z,6.73
2018-08-17T12:04:03.918Z,13.46
2018-08-17T12:05:03.889Z,9.13
2018-08-17T12:06:03.871Z,5.67
2018-08-17T12:07:03.849Z,6.54
2018-08-17T12:08:03.846Z,8.65
2018-08-17T12:09:03.793Z,8.65
2018-08-17T12:10:03.770Z,10.28
2018-08-17T12:11:03.748Z,10.00
2018-08-17T12:12:03.718Z,5.67
2018-08-17T12:13:03.690Z,4.80
2018-08-17T12:14:03.672Z,11.33
2018-08-17T12:15:03.652Z,11.54
2018-08-17T12:16:03.618Z,5.29
2018-08-17T12:17:03.601Z,1.25
2018-08-17T12:18:03.575Z,8.36
2018-08-17T12:19:03.542Z,11.05
2018-08-17T12:20:03.519Z,15.95
2018-08-17T12:21:03.496Z,12.10
2018-08-17T12:22:03.466Z,11.15
2018-08-17T12:23:03.440Z,15.95
2018-08-17T12:24:03.421Z,12.97
2018-08-17T12:25:03.463Z,9.32
2018-08-17T12:26:03.366Z,12.59
2018-08-17T12:27:03.350Z,14.41
2018-08-17T12:28:03.319Z,16.81
2018-08-17T12:29:03.289Z,13.26
2018-08-17T12:30:03.272Z,11.62
2018-08-17T12:31:03.245Z,15.28
2018-08-17T12:32:03.269Z,14.12
2018-08-17T12:33:03.191Z,12.40
2018-08-17T12:34:03.172Z,17.77
2018-08-17T12:35:03.137Z,14.89
2018-08-17T12:36:03.140Z,10.47
2018-08-17T12:37:03.087Z,15.85
2018-08-17T12:38:03.107Z,15.67
2018-08-17T12:39:03.040Z,13.65
2018-08-17T12:40:03.058Z,10.28
2018-08-17T12:41:02.989Z,14.90
2018-08-17T12:42:02.971Z,16.53
2018-08-17T12:43:02.970Z,14.42
2018-08-17T12:44:02.923Z,12.30
2018-08-17T12:45:02.905Z,14.90
2018-08-17T12:46:02.865Z,11.24
2018-08-17T12:47:02.845Z,7.12
2018-08-17T12:48:02.823Z,6.25
2018-08-17T12:49:02.816Z,8.36
2018-08-17T12:50:02.775Z,9.81
2018-08-17T12:51:02.739Z,15.19
2018-08-17T12:52:02.718Z,17.21
2018-08-17T12:53:02.696Z,26.45
2018-08-17T12:54:02.682Z,19.23
2018-08-17T12:55:02.636Z,25.58
2018-08-17T12:56:02.620Z,22.03
2018-08-17T12:57:02.594Z,18.66
2018-08-17T12:58:02.606Z,12.22
2018-08-17T12:59:02.545Z,11.07
2018-08-17T13:00:02.520Z,9.62
2018-08-17T13:01:02.493Z,13.28
2018-08-17T13:02:02.469Z,13.95
2018-08-17T13:03:02.445Z,12.41
2018-08-17T13:04:02.416Z,11.46